If you wish to contribute or participate in the discussions about articles you are invited to join SKYbrary as a registered user

 Actions

Braunschweig Airport

From SKYbrary Wiki

EDVE
Airport
ICAO: EDVE – IATA: BWE
Summary
Name Braunschweig Airport
Region Europe
Territory Germany DE.gif
Location Braunschweig, Lower Saxony
Serving Braunschweig
Elevation 90 m
295.276 ft
295.276 ft90 m
Coordinates 52° 19' 9.48" N, 10° 33' 11.72" E
Runways
Designator Length Width Surface ROPS
8/26 1680 m5,511.811 ft
30 m98.425 ft
ASP yes/yes
08R/26L 900 m2,952.756 ft
30 m98.425 ft
GRS /


METAR
Observation EDVE 251420Z 10011KT CAVOK 23/07 Q1009
Station Braunschweig
Date/Time 25 April 2019 14:20:00
Wind direction 100°
Wind speed 11 kts
Lowest cloud amount clouds and visibility OK
Temperature 23°C
Dew point 7°C
Humidity 35%
QNH 1009 hPa
Weather condition n/a

Braunschweig/Wolfsburg Airport

ICAO: EDVE IATA: BWE

Description

Airport on the northern edge of Braunschweig, Germany.

Climatology

Temperate Marine climate/Oceanic climate (Köppen climate classification Cfb) - Moderately cool summer and comparatively warm winter.

Maps

Terrain

Loading map...

Airport Layout

Loading map...


Accidents & Serious Incidents at or in vicinity of EDVE

None on SKYbrary